LHA7W CYXC-KRNT
Flight info
| Callsign | LHA7W |
|---|---|
| Flight time | 0h 52m |
| Altitude | 36000 |
| Route | BONOX1 SILVR J505 TWISP DCT GLASR GLASR3 |
| Aircraft | A319/M-SDE1E2FGIJ1RWYZ/S |
Departure
| Time | 2026-05-04 07:43 |
|---|---|
| Airport | Cranbrook/Canadian Rockies International Airport (CYXC) |
Arrival
| Time | 2026-05-04 08:35 |
|---|---|
| Airport | Renton Municipal Airport (KRNT) |
| Time | Latitude | Longitude | Altitude | Speed | Heading |
|---|---|---|---|---|---|
| 2026-05-04 07:24 | 49.61402 | -115.78516 | 3095 ft | 0 kts | 272° |
| 2026-05-04 07:34 | 49.61402 | -115.78515 | 3095 ft | 1 kts | 272° |
| 2026-05-04 07:35 | 49.61401 | -115.78493 | 3096 ft | 2 kts | 272° |
| 2026-05-04 07:35 | 49.61401 | -115.78469 | 3096 ft | 1 kts | 281° |
| 2026-05-04 07:35 | 49.61393 | -115.78451 | 3096 ft | 2 kts | 332° |
| 2026-05-04 07:35 | 49.61377 | -115.78448 | 3096 ft | 2 kts | 8° |
| 2026-05-04 07:36 | 49.61364 | -115.78449 | 3096 ft | 0 kts | 357° |
| 2026-05-04 07:38 | 49.61396 | -115.78450 | 3095 ft | 3 kts | 358° |
| 2026-05-04 07:38 | 49.61426 | -115.78452 | 3095 ft | 5 kts | 357° |
| 2026-05-04 07:38 | 49.61463 | -115.78439 | 3095 ft | 6 kts | 33° |
| 2026-05-04 07:38 | 49.61503 | -115.78391 | 3095 ft | 8 kts | 38° |
| 2026-05-04 07:39 | 49.61551 | -115.78333 | 3095 ft | 9 kts | 37° |
| 2026-05-04 07:39 | 49.61605 | -115.78266 | 3095 ft | 11 kts | 39° |
| 2026-05-04 07:39 | 49.61673 | -115.78218 | 3095 ft | 12 kts | 7° |
| 2026-05-04 07:39 | 49.61760 | -115.78217 | 3094 ft | 13 kts | 359° |
| 2026-05-04 07:40 | 49.61850 | -115.78221 | 3094 ft | 14 kts | 359° |
| 2026-05-04 07:40 | 49.61948 | -115.78221 | 3094 ft | 15 kts | 360° |
| 2026-05-04 07:40 | 49.62049 | -115.78224 | 3094 ft | 16 kts | 359° |
| 2026-05-04 07:40 | 49.62159 | -115.78227 | 3094 ft | 17 kts | 358° |
| 2026-05-04 07:41 | 49.62231 | -115.78273 | 3094 ft | 10 kts | 324° |
| 2026-05-04 07:41 | 49.62270 | -115.78240 | 3094 ft | 9 kts | 132° |
| 2026-05-04 07:41 | 49.62250 | -115.78230 | 3094 ft | 0 kts | 179° |
| 2026-05-04 07:42 | 49.62138 | -115.78227 | 3094 ft | 54 kts | 179° |
| 2026-05-04 07:42 | 49.61533 | -115.78212 | 3095 ft | 129 kts | 180° |
| 2026-05-04 07:42 | 49.60538 | -115.78176 | 3358 ft | 164 kts | 179° |
| 2026-05-04 07:43 | 49.59516 | -115.78116 | 4056 ft | 167 kts | 182° |
| 2026-05-04 07:43 | 49.58405 | -115.78104 | 4685 ft | 182 kts | 181° |
| 2026-05-04 07:43 | 49.57214 | -115.78085 | 5274 ft | 199 kts | 180° |
| 2026-05-04 07:43 | 49.55859 | -115.78057 | 5879 ft | 218 kts | 179° |
| 2026-05-04 07:44 | 49.54419 | -115.78023 | 6399 ft | 242 kts | 178° |
| 2026-05-04 07:44 | 49.52811 | -115.77979 | 6977 ft | 264 kts | 178° |
| 2026-05-04 07:44 | 49.51084 | -115.77933 | 7540 ft | 282 kts | 178° |
| 2026-05-04 07:44 | 49.49260 | -115.77887 | 8100 ft | 288 kts | 179° |
| 2026-05-04 07:45 | 49.47399 | -115.78146 | 8663 ft | 291 kts | 197° |
| 2026-05-04 07:45 | 49.45787 | -115.79485 | 9224 ft | 293 kts | 221° |
| 2026-05-04 07:45 | 49.44666 | -115.81712 | 9791 ft | 293 kts | 244° |
| 2026-05-04 07:45 | 49.43917 | -115.84315 | 10361 ft | 295 kts | 248° |
| 2026-05-04 07:46 | 49.43201 | -115.87006 | 10930 ft | 296 kts | 249° |
| 2026-05-04 07:46 | 49.42483 | -115.89661 | 11485 ft | 298 kts | 249° |
| 2026-05-04 07:46 | 49.41703 | -115.92463 | 12019 ft | 317 kts | 248° |
| 2026-05-04 07:46 | 49.40860 | -115.95423 | 12530 ft | 335 kts | 248° |
| 2026-05-04 07:47 | 49.39974 | -115.98486 | 13042 ft | 347 kts | 248° |
| 2026-05-04 07:47 | 49.39072 | -116.01580 | 13597 ft | 351 kts | 248° |
| 2026-05-04 07:47 | 49.38187 | -116.04703 | 14150 ft | 353 kts | 251° |
| 2026-05-04 07:49 | 49.36394 | -116.29243 | 18160 ft | 368 kts | 271° |
| 2026-05-04 07:49 | 49.36240 | -116.32945 | 18754 ft | 371 kts | 271° |
| 2026-05-04 07:49 | 49.36082 | -116.36652 | 19349 ft | 373 kts | 271° |
| 2026-05-04 07:50 | 49.35926 | -116.40285 | 19926 ft | 376 kts | 271° |
| 2026-05-04 07:50 | 49.35766 | -116.43961 | 20507 ft | 379 kts | 271° |
| 2026-05-04 07:50 | 49.35599 | -116.47711 | 21101 ft | 383 kts | 271° |
| 2026-05-04 07:50 | 49.35433 | -116.51417 | 21681 ft | 385 kts | 271° |
| 2026-05-04 07:51 | 49.35263 | -116.55193 | 22276 ft | 388 kts | 271° |
| 2026-05-04 07:51 | 49.35090 | -116.58990 | 22874 ft | 391 kts | 271° |
| 2026-05-04 07:51 | 49.34902 | -116.63069 | 23508 ft | 395 kts | 271° |
| 2026-05-04 07:51 | 49.34706 | -116.67286 | 24166 ft | 398 kts | 271° |
| 2026-05-04 07:52 | 49.34520 | -116.71265 | 24789 ft | 401 kts | 271° |
| 2026-05-04 07:52 | 49.34240 | -116.75116 | 25378 ft | 407 kts | 266° |
| 2026-05-04 07:52 | 49.33672 | -116.79074 | 25878 ft | 416 kts | 259° |
| 2026-05-04 07:52 | 49.32824 | -116.82888 | 26290 ft | 426 kts | 253° |
| 2026-05-04 07:53 | 49.31712 | -116.86710 | 26679 ft | 434 kts | 250° |
| 2026-05-04 07:54 | 49.23244 | -117.13683 | 29304 ft | 457 kts | 250° |
| 2026-05-04 07:55 | 49.22509 | -117.16028 | 29516 ft | 459 kts | 250° |
| 2026-05-04 07:55 | 49.21385 | -117.19617 | 29840 ft | 461 kts | 250° |
| 2026-05-04 07:55 | 49.20148 | -117.23566 | 30195 ft | 464 kts | 250° |
| 2026-05-04 07:55 | 49.18904 | -117.27530 | 30560 ft | 467 kts | 250° |
| 2026-05-04 07:56 | 49.17668 | -117.31464 | 30915 ft | 470 kts | 250° |
| 2026-05-04 07:56 | 49.16396 | -117.35497 | 31281 ft | 471 kts | 250° |
| 2026-05-04 07:56 | 49.15157 | -117.39425 | 31633 ft | 470 kts | 250° |
| 2026-05-04 07:56 | 49.13918 | -117.43346 | 31990 ft | 471 kts | 250° |
| 2026-05-04 07:57 | 49.12672 | -117.47282 | 32350 ft | 470 kts | 250° |
| 2026-05-04 07:57 | 49.11426 | -117.51211 | 32708 ft | 470 kts | 250° |
| 2026-05-04 07:57 | 49.10159 | -117.55203 | 33075 ft | 469 kts | 250° |
| 2026-05-04 07:57 | 49.08894 | -117.59177 | 33442 ft | 470 kts | 250° |
| 2026-05-04 07:58 | 49.07619 | -117.63177 | 33801 ft | 470 kts | 250° |
| 2026-05-04 07:58 | 49.06345 | -117.67173 | 34170 ft | 471 kts | 249° |
| 2026-05-04 07:58 | 49.05069 | -117.71174 | 34497 ft | 471 kts | 249° |
| 2026-05-04 07:58 | 49.03799 | -117.75143 | 34811 ft | 471 kts | 249° |
| 2026-05-04 07:59 | 49.02537 | -117.79082 | 35124 ft | 471 kts | 249° |
| 2026-05-04 07:59 | 49.01264 | -117.83041 | 35437 ft | 471 kts | 250° |
| 2026-05-04 07:59 | 49.00012 | -117.86930 | 35748 ft | 469 kts | 250° |
| 2026-05-04 07:59 | 48.98741 | -117.90878 | 35922 ft | 471 kts | 250° |
| 2026-05-04 08:00 | 48.96171 | -117.98862 | 35913 ft | 474 kts | 249° |
| 2026-05-04 08:02 | 48.85535 | -118.31450 | 35906 ft | 478 kts | 249° |
| 2026-05-04 08:02 | 48.82826 | -118.39676 | 35912 ft | 478 kts | 250° |
| 2026-05-04 08:03 | 48.80074 | -118.48010 | 35924 ft | 479 kts | 249° |
| 2026-05-04 08:03 | 48.77302 | -118.56370 | 35943 ft | 478 kts | 249° |
| 2026-05-04 08:04 | 48.74525 | -118.64722 | 35947 ft | 479 kts | 249° |
| 2026-05-04 08:04 | 48.71777 | -118.72966 | 35940 ft | 481 kts | 249° |
| 2026-05-04 08:05 | 48.69040 | -118.81147 | 35931 ft | 481 kts | 249° |
| 2026-05-04 08:05 | 48.66274 | -118.89385 | 35933 ft | 482 kts | 248° |
| 2026-05-04 08:06 | 48.63440 | -118.97800 | 35939 ft | 483 kts | 248° |
| 2026-05-04 08:06 | 48.60583 | -119.06256 | 35945 ft | 483 kts | 248° |
| 2026-05-04 08:08 | 48.48494 | -119.41722 | 35908 ft | 484 kts | 248° |
| 2026-05-04 08:11 | 48.34539 | -119.82062 | 35950 ft | 490 kts | 248° |
| 2026-05-04 08:11 | 48.29833 | -119.95515 | 36005 ft | 489 kts | 247° |
| 2026-05-04 08:12 | 48.26673 | -120.04513 | 36041 ft | 490 kts | 247° |
| 2026-05-04 08:12 | 48.23523 | -120.13471 | 35671 ft | 490 kts | 247° |
| 2026-05-04 08:13 | 48.21967 | -120.17885 | 35027 ft | 486 kts | 247° |
| 2026-05-04 08:13 | 48.20419 | -120.22259 | 34381 ft | 482 kts | 247° |
| 2026-05-04 08:13 | 48.18889 | -120.26584 | 33784 ft | 478 kts | 246° |
| 2026-05-04 08:13 | 48.17366 | -120.30881 | 33194 ft | 474 kts | 246° |
| 2026-05-04 08:14 | 48.15832 | -120.35197 | 32540 ft | 466 kts | 246° |
| 2026-05-04 08:14 | 48.14349 | -120.39359 | 31900 ft | 456 kts | 246° |
| 2026-05-04 08:14 | 48.12897 | -120.43429 | 31259 ft | 445 kts | 246° |
| 2026-05-04 08:16 | 48.03466 | -120.69715 | 26861 ft | 393 kts | 244° |
| 2026-05-04 08:16 | 48.02193 | -120.73245 | 26239 ft | 389 kts | 244° |
| 2026-05-04 08:16 | 48.00910 | -120.76796 | 25601 ft | 386 kts | 245° |
| 2026-05-04 08:17 | 47.99657 | -120.80260 | 24982 ft | 383 kts | 244° |
| 2026-05-04 08:17 | 47.98396 | -120.83742 | 24353 ft | 379 kts | 245° |
| 2026-05-04 08:17 | 47.97172 | -120.87118 | 23733 ft | 376 kts | 245° |
| 2026-05-04 08:17 | 47.95931 | -120.90540 | 23106 ft | 373 kts | 244° |
| 2026-05-04 08:19 | 47.87545 | -121.13524 | 18906 ft | 353 kts | 243° |
| 2026-05-04 08:19 | 47.86398 | -121.16711 | 18358 ft | 349 kts | 246° |
| 2026-05-04 08:20 | 47.85450 | -121.19952 | 17819 ft | 344 kts | 252° |
| 2026-05-04 08:20 | 47.84742 | -121.23321 | 17273 ft | 339 kts | 257° |
| 2026-05-04 08:20 | 47.84185 | -121.26658 | 16737 ft | 336 kts | 259° |
| 2026-05-04 08:20 | 47.83645 | -121.30049 | 16193 ft | 333 kts | 259° |
| 2026-05-04 08:21 | 47.83115 | -121.33356 | 15659 ft | 331 kts | 259° |
| 2026-05-04 08:21 | 47.82588 | -121.36615 | 15130 ft | 328 kts | 258° |
| 2026-05-04 08:21 | 47.82048 | -121.39926 | 14587 ft | 326 kts | 258° |
| 2026-05-04 08:21 | 47.81499 | -121.43267 | 14030 ft | 324 kts | 258° |
| 2026-05-04 08:22 | 47.80947 | -121.46600 | 13477 ft | 322 kts | 258° |
| 2026-05-04 08:22 | 47.80405 | -121.49870 | 12929 ft | 319 kts | 258° |
| 2026-05-04 08:24 | 47.76767 | -121.71627 | 9759 ft | 298 kts | 256° |
| 2026-05-04 08:24 | 47.76269 | -121.74584 | 9396 ft | 294 kts | 256° |
| 2026-05-04 08:24 | 47.75799 | -121.77363 | 9047 ft | 291 kts | 257° |
| 2026-05-04 08:24 | 47.75333 | -121.80119 | 8709 ft | 288 kts | 257° |
| 2026-05-04 08:25 | 47.74855 | -121.82935 | 8356 ft | 284 kts | 257° |
| 2026-05-04 08:25 | 47.74391 | -121.85677 | 7978 ft | 279 kts | 257° |
| 2026-05-04 08:25 | 47.73929 | -121.88395 | 7572 ft | 274 kts | 257° |
| 2026-05-04 08:25 | 47.73499 | -121.90932 | 7164 ft | 269 kts | 257° |
| 2026-05-04 08:26 | 47.73065 | -121.93478 | 6768 ft | 265 kts | 257° |
| 2026-05-04 08:27 | 47.70203 | -122.10199 | 3981 ft | 231 kts | 257° |
| 2026-05-04 08:28 | 47.69807 | -122.12502 | 3662 ft | 225 kts | 257° |
| 2026-05-04 08:28 | 47.69427 | -122.14706 | 3367 ft | 219 kts | 257° |
| 2026-05-04 08:28 | 47.69052 | -122.16870 | 3069 ft | 212 kts | 257° |
| 2026-05-04 08:28 | 47.68694 | -122.18936 | 2767 ft | 204 kts | 257° |
| 2026-05-04 08:29 | 47.68348 | -122.20945 | 2468 ft | 199 kts | 257° |
| 2026-05-04 08:29 | 47.67857 | -122.22824 | 2153 ft | 196 kts | 232° |
| 2026-05-04 08:29 | 47.66790 | -122.24000 | 1879 ft | 190 kts | 197° |
| 2026-05-04 08:31 | 47.58665 | -122.22983 | 1569 ft | 129 kts | 173° |
| 2026-05-04 08:33 | 47.52516 | -122.22038 | 703 ft | 123 kts | 172° |
| 2026-05-04 08:33 | 47.51677 | -122.21931 | 468 ft | 121 kts | 172° |
| 2026-05-04 08:35 | 47.48623 | -122.21479 | 33 ft | 12 kts | 186° |
| 2026-05-04 08:35 | 47.48611 | -122.21579 | 33 ft | 13 kts | 316° |
| 2026-05-04 08:35 | 47.48706 | -122.21605 | 33 ft | 15 kts | 356° |
| 2026-05-04 08:35 | 47.48814 | -122.21622 | 33 ft | 16 kts | 354° |
| 2026-05-04 08:37 | 47.49600 | -122.21744 | 32 ft | 21 kts | 353° |
| 2026-05-04 08:37 | 47.49728 | -122.21763 | 32 ft | 9 kts | 350° |
| 2026-05-04 08:37 | 47.49746 | -122.21819 | 32 ft | 5 kts | 264° |
| 2026-05-04 08:38 | 47.49745 | -122.21838 | 32 ft | 0 kts | 264° |